sensor_id;sensor_type;location;lat;lon;timestamp;pressure;altitude;pressure_sealevel;temperature;humidity
4398;BME280;2213;49.720;7.296;2023-01-24T00:00:24;99773.84;;;2.15;100.00
4398;BME280;2213;49.720;7.296;2023-01-24T00:02:54;99779.72;;;2.17;100.00
4398;BME280;2213;49.720;7.296;2023-01-24T00:05:24;99776.31;;;2.17;100.00
4398;BME280;2213;49.720;7.296;2023-01-24T00:07:55;99779.00;;;2.15;100.00
4398;BME280;2213;49.720;7.296;2023-01-24T00:10:25;99773.00;;;2.15;100.00
4398;BME280;2213;49.720;7.296;2023-01-24T00:12:58;99774.56;;;2.17;100.00
4398;BME280;2213;49.720;7.296;2023-01-24T00:15:28;99769.41;;;2.17;100.00
4398;BME280;2213;49.720;7.296;2023-01-24T00:17:58;99768.69;;;2.15;100.00
4398;BME280;2213;49.720;7.296;2023-01-24T00:20:27;99768.50;;;2.18;100.00
4398;BME280;2213;49.720;7.296;2023-01-24T00:22:59;99772.72;;;2.19;100.00
4398;BME280;2213;49.720;7.296;2023-01-24T00:25:29;99773.53;;;2.20;100.00
4398;BME280;2213;49.720;7.296;2023-01-24T00:27:58;99779.53;;;2.20;100.00
4398;BME280;2213;49.720;7.296;2023-01-24T00:30:29;99792.53;;;2.19;100.00
4398;BME280;2213;49.720;7.296;2023-01-24T00:33:00;99784.16;;;2.15;100.00
4398;BME280;2213;49.720;7.296;2023-01-24T00:35:30;99789.22;;;2.17;100.00
4398;BME280;2213;49.720;7.296;2023-01-24T00:38:02;99791.91;;;2.15;100.00
4398;BME280;2213;49.720;7.296;2023-01-24T00:40:32;99793.66;;;2.15;100.00
4398;BME280;2213;49.720;7.296;2023-01-24T00:43:02;99783.22;;;2.16;100.00
4398;BME280;2213;49.720;7.296;2023-01-24T00:45:34;99785.63;;;2.19;100.00
4398;BME280;2213;49.720;7.296;2023-01-24T00:48:05;99790.03;;;2.17;100.00
4398;BME280;2213;49.720;7.296;2023-01-24T00:50:35;99779.72;;;2.17;100.00
4398;BME280;2213;49.720;7.296;2023-01-24T00:53:06;99780.63;;;2.16;100.00
4398;BME280;2213;49.720;7.296;2023-01-24T00:55:41;99781.47;;;2.17;100.00
4398;BME280;2213;49.720;7.296;2023-01-24T00:58:12;99774.75;;;2.14;100.00
4398;BME280;2213;49.720;7.296;2023-01-24T01:00:42;99773.19;;;2.12;100.00
4398;BME280;2213;49.720;7.296;2023-01-24T01:03:15;99769.78;;;2.11;100.00
4398;BME280;2213;49.720;7.296;2023-01-24T01:05:44;99775.66;;;2.13;100.00
4398;BME280;2213;49.720;7.296;2023-01-24T01:08:16;99772.06;;;2.16;100.00
4398;BME280;2213;49.720;7.296;2023-01-24T01:10:46;99767.84;;;2.15;100.00
4398;BME280;2213;49.720;7.296;2023-01-24T01:13:16;99775.47;;;2.16;100.00
4398;BME280;2213;49.720;7.296;2023-01-24T01:15:46;99777.97;;;2.18;100.00
4398;BME280;2213;49.720;7.296;2023-01-24T01:18:17;99781.47;;;2.17;100.00
4398;BME280;2213;49.720;7.296;2023-01-24T01:20:50;99776.22;;;2.18;100.00
4398;BME280;2213;49.720;7.296;2023-01-24T01:23:21;99782.19;;;2.19;100.00
4398;BME280;2213;49.720;7.296;2023-01-24T01:25:51;99783.03;;;2.19;100.00
4398;BME280;2213;49.720;7.296;2023-01-24T01:28:21;99780.38;;;2.21;100.00
4398;BME280;2213;49.720;7.296;2023-01-24T01:30:53;99784.69;;;2.20;100.00
4398;BME280;2213;49.720;7.296;2023-01-24T01:33:23;99785.44;;;2.22;100.00
4398;BME280;2213;49.720;7.296;2023-01-24T01:35:52;99788.84;;;2.23;100.00
4398;BME280;2213;49.720;7.296;2023-01-24T01:38:23;99788.00;;;2.22;100.00
4398;BME280;2213;49.720;7.296;2023-01-24T01:40:55;99784.88;;;2.17;100.00
4398;BME280;2213;49.720;7.296;2023-01-24T01:43:28;99787.22;;;2.22;100.00
4398;BME280;2213;49.720;7.296;2023-01-24T01:46:08;99787.34;;;2.19;100.00
4398;BME280;2213;49.720;7.296;2023-01-24T01:48:47;99784.88;;;2.17;100.00
4398;BME280;2213;49.720;7.296;2023-01-24T01:51:25;99785.53;;;2.21;100.00
4398;BME280;2213;49.720;7.296;2023-01-24T01:54:02;99789.78;;;2.22;100.00
4398;BME280;2213;49.720;7.296;2023-01-24T01:56:40;99791.53;;;2.21;100.00
4398;BME280;2213;49.720;7.296;2023-01-24T01:59:14;99789.88;;;2.20;100.00
4398;BME280;2213;49.720;7.296;2023-01-24T02:01:46;99787.34;;;2.19;100.00
4398;BME280;2213;49.720;7.296;2023-01-24T02:04:21;99784.63;;;2.22;100.00
4398;BME280;2213;49.720;7.296;2023-01-24T02:06:56;99784.50;;;2.23;100.00
4398;BME280;2213;49.720;7.296;2023-01-24T02:09:34;99789.69;;;2.23;100.00
4398;BME280;2213;49.720;7.296;2023-01-24T02:12:11;99793.16;;;2.22;100.00
4398;BME280;2213;49.720;7.296;2023-01-24T02:14:45;99795.66;;;2.24;100.00
4398;BME280;2213;49.720;7.296;2023-01-24T02:17:32;99782.84;;;2.22;100.00
4398;BME280;2213;49.720;7.296;2023-01-24T02:20:28;99791.34;;;2.24;100.00
4398;BME280;2213;49.720;7.296;2023-01-24T02:23:20;99788.00;;;2.22;100.00
4398;BME280;2213;49.720;7.296;2023-01-24T02:26:06;99796.69;;;2.21;100.00
4398;BME280;2213;49.720;7.296;2023-01-24T02:28:37;99799.09;;;2.24;100.00
4398;BME280;2213;49.720;7.296;2023-01-24T02:31:07;99794.84;;;2.23;100.00
4398;BME280;2213;49.720;7.296;2023-01-24T02:33:38;99806.00;;;2.24;100.00
4398;BME280;2213;49.720;7.296;2023-01-24T02:36:18;99795.59;;;2.25;100.00
4398;BME280;2213;49.720;7.296;2023-01-24T02:38:54;99793.00;;;2.25;100.00
4398;BME280;2213;49.720;7.296;2023-01-24T02:41:37;99804.13;;;2.26;100.00
4398;BME280;2213;49.720;7.296;2023-01-24T02:44:14;99810.13;;;2.26;100.00
4398;BME280;2213;49.720;7.296;2023-01-24T02:46:47;99810.13;;;2.26;100.00
4398;BME280;2213;49.720;7.296;2023-01-24T02:49:17;99816.06;;;2.28;100.00
4398;BME280;2213;49.720;7.296;2023-01-24T02:51:47;99805.81;;;2.27;100.00
4398;BME280;2213;49.720;7.296;2023-01-24T02:54:34;99801.56;;;2.26;100.00
4398;BME280;2213;49.720;7.296;2023-01-24T02:57:04;99796.69;;;2.21;100.00
4398;BME280;2213;49.720;7.296;2023-01-24T02:59:52;99805.16;;;2.23;100.00
4398;BME280;2213;49.720;7.296;2023-01-24T03:02:22;99802.69;;;2.22;100.00
4398;BME280;2213;49.720;7.296;2023-01-24T03:04:53;99801.75;;;2.23;100.00
4398;BME280;2213;49.720;7.296;2023-01-24T03:07:22;99802.50;;;2.25;100.00
4398;BME280;2213;49.720;7.296;2023-01-24T03:09:52;99810.13;;;2.26;100.00
4398;BME280;2213;49.720;7.296;2023-01-24T03:12:23;99806.72;;;2.26;100.00
4398;BME280;2213;49.720;7.296;2023-01-24T03:15:10;99806.72;;;2.26;100.00
4398;BME280;2213;49.720;7.296;2023-01-24T03:17:58;99797.41;;;2.23;100.00
4398;BME280;2213;49.720;7.296;2023-01-24T03:20:47;99795.03;;;2.20;100.00
4398;BME280;2213;49.720;7.296;2023-01-24T03:23:35;99790.59;;;2.22;100.00
4398;BME280;2213;49.720;7.296;2023-01-24T03:26:22;99792.19;;;2.25;100.00
4398;BME280;2213;49.720;7.296;2023-01-24T03:29:11;99794.66;;;2.26;100.00
4398;BME280;2213;49.720;7.296;2023-01-24T03:31:59;99807.66;;;2.25;100.00
4398;BME280;2213;49.720;7.296;2023-01-24T03:34:45;99807.66;;;2.25;100.00
4398;BME280;2213;49.720;7.296;2023-01-24T03:37:20;99810.06;;;2.28;100.00
4398;BME280;2213;49.720;7.296;2023-01-24T03:40:14;99808.31;;;2.28;100.00
4398;BME280;2213;49.720;7.296;2023-01-24T03:42:43;99815.09;;;2.29;100.00
4398;BME280;2213;49.720;7.296;2023-01-24T03:45:23;99812.53;;;2.29;100.00
4398;BME280;2213;49.720;7.296;2023-01-24T03:47:55;99806.56;;;2.29;100.00
4398;BME280;2213;49.720;7.296;2023-01-24T03:50:29;99813.53;;;2.27;100.00
4398;BME280;2213;49.720;7.296;2023-01-24T03:53:17;99810.31;;;2.23;100.00
4398;BME280;2213;49.720;7.296;2023-01-24T03:55:51;99811.16;;;2.24;100.00
4398;BME280;2213;49.720;7.296;2023-01-24T03:58:20;99810.50;;;2.20;100.00
4398;BME280;2213;49.720;7.296;2023-01-24T04:00:53;99807.84;;;2.22;100.00
4398;BME280;2213;49.720;7.296;2023-01-24T04:03:23;99803.69;;;2.19;100.00
4398;BME280;2213;49.720;7.296;2023-01-24T04:05:53;99816.31;;;2.24;100.00
4398;BME280;2213;49.720;7.296;2023-01-24T04:08:23;99814.84;;;2.20;100.00
4398;BME280;2213;49.720;7.296;2023-01-24T04:10:55;99829.47;;;2.19;100.00
4398;BME280;2213;49.720;7.296;2023-01-24T04:13:26;99827.66;;;2.21;100.00
4398;BME280;2213;49.720;7.296;2023-01-24T04:15:57;99821.00;;;2.17;100.00
4398;BME280;2213;49.720;7.296;2023-01-24T04:18:27;99820.91;;;2.19;100.00
4398;BME280;2213;49.720;7.296;2023-01-24T04:21:00;99824.13;;;2.22;100.00
4398;BME280;2213;49.720;7.296;2023-01-24T04:23:31;99824.13;;;2.22;100.00
4398;BME280;2213;49.720;7.296;2023-01-24T04:26:01;99820.63;;;2.23;100.00
4398;BME280;2213;49.720;7.296;2023-01-24T04:28:32;99822.31;;;2.24;100.00
4398;BME280;2213;49.720;7.296;2023-01-24T04:31:04;99820.63;;;2.23;100.00
4398;BME280;2213;49.720;7.296;2023-01-24T04:33:34;99822.31;;;2.24;100.00
4398;BME280;2213;49.720;7.296;2023-01-24T04:36:08;99818.91;;;2.24;100.00
4398;BME280;2213;49.720;7.296;2023-01-24T04:38:39;99825.16;;;2.20;100.00
4398;BME280;2213;49.720;7.296;2023-01-24T04:41:10;99815.19;;;2.14;100.00
4398;BME280;2213;49.720;7.296;2023-01-24T04:43:42;99819.78;;;2.09;100.00
4398;BME280;2213;49.720;7.296;2023-01-24T04:46:13;99818.81;;;2.11;100.00
4398;BME280;2213;49.720;7.296;2023-01-24T04:48:43;99821.00;;;2.03;100.00
4398;BME280;2213;49.720;7.296;2023-01-24T04:51:12;99826.81;;;2.07;100.00
4398;BME280;2213;49.720;7.296;2023-01-24T04:53:42;99825.06;;;2.07;100.00
4398;BME280;2213;49.720;7.296;2023-01-24T04:56:12;99830.41;;;2.04;100.00
4398;BME280;2213;49.720;7.296;2023-01-24T04:58:41;99830.03;;;2.10;100.00
4398;BME280;2213;49.720;7.296;2023-01-24T05:01:13;99825.97;;;2.06;100.00
4398;BME280;2213;49.720;7.296;2023-01-24T05:03:41;99831.22;;;2.05;100.00
4398;BME280;2213;49.720;7.296;2023-01-24T05:06:12;99829.44;;;2.05;100.00
4398;BME280;2213;49.720;7.296;2023-01-24T05:08:42;99835.75;;;2.01;100.00
4398;BME280;2213;49.720;7.296;2023-01-24T05:11:11;99846.19;;;1.98;100.00
4398;BME280;2213;49.720;7.296;2023-01-24T05:13:42;99851.22;;;2.01;100.00
4398;BME280;2213;49.720;7.296;2023-01-24T05:16:13;99846.56;;;1.92;100.00
4398;BME280;2213;49.720;7.296;2023-01-24T05:18:42;99843.06;;;1.93;100.00
4398;BME280;2213;49.720;7.296;2023-01-24T05:21:13;99844.75;;;1.94;100.00
4398;BME280;2213;49.720;7.296;2023-01-24T05:23:48;99857.63;;;1.94;100.00
4398;BME280;2213;49.720;7.296;2023-01-24T05:26:17;99844.00;;;1.92;100.00
4398;BME280;2213;49.720;7.296;2023-01-24T05:28:47;99865.72;;;1.88;100.00
4398;BME280;2213;49.720;7.296;2023-01-24T05:31:19;99870.88;;;1.88;100.00
4398;BME280;2213;49.720;7.296;2023-01-24T05:33:49;99866.72;;;1.85;100.00
4398;BME280;2213;49.720;7.296;2023-01-24T05:36:21;99873.56;;;1.86;100.00
4398;BME280;2213;49.720;7.296;2023-01-24T05:38:52;99873.44;;;1.88;100.00
4398;BME280;2213;49.720;7.296;2023-01-24T05:41:22;99881.53;;;1.82;100.00
4398;BME280;2213;49.720;7.296;2023-01-24T05:43:51;99875.66;;;1.80;100.00
4398;BME280;2213;49.720;7.296;2023-01-24T05:46:22;99876.19;;;1.85;100.00
4398;BME280;2213;49.720;7.296;2023-01-24T05:48:51;99877.28;;;1.81;100.00
4398;BME280;2213;49.720;7.296;2023-01-24T05:51:20;99875.97;;;1.74;100.00
4398;BME280;2213;49.720;7.296;2023-01-24T05:53:49;99875.91;;;1.75;100.00
4398;BME280;2213;49.720;7.296;2023-01-24T05:56:20;99887.59;;;1.81;100.00
4398;BME280;2213;49.720;7.296;2023-01-24T05:58:51;99887.53;;;1.82;100.00
4398;BME280;2213;49.720;7.296;2023-01-24T06:01:22;99891.69;;;1.85;100.00
4398;BME280;2213;49.720;7.296;2023-01-24T06:03:53;99892.50;;;1.85;100.00
4398;BME280;2213;49.720;7.296;2023-01-24T06:06:24;99897.59;;;1.87;100.00
4398;BME280;2213;49.720;7.296;2023-01-24T06:08:54;99906.72;;;1.92;100.00
4398;BME280;2213;49.720;7.296;2023-01-24T06:11:26;99911.94;;;1.91;100.00
4398;BME280;2213;49.720;7.296;2023-01-24T06:13:57;99894.84;;;1.90;100.00
4398;BME280;2213;49.720;7.296;2023-01-24T06:16:28;99896.47;;;1.91;100.00
4398;BME280;2213;49.720;7.296;2023-01-24T06:18:58;99895.69;;;1.90;100.00
4398;BME280;2213;49.720;7.296;2023-01-24T06:21:43;99900.84;;;1.90;100.00
4398;BME280;2213;49.720;7.296;2023-01-24T06:24:19;99901.00;;;1.87;100.00
4398;BME280;2213;49.720;7.296;2023-01-24T06:26:52;99901.81;;;1.88;100.00
4398;BME280;2213;49.720;7.296;2023-01-24T06:29:23;99900.00;;;1.90;100.00
4398;BME280;2213;49.720;7.296;2023-01-24T06:32:08;99902.56;;;1.90;100.00
4398;BME280;2213;49.720;7.296;2023-01-24T06:35:17;99902.66;;;1.88;100.00
4398;BME280;2213;49.720;7.296;2023-01-24T06:37:52;99906.78;;;1.91;100.00
4398;BME280;2213;49.720;7.296;2023-01-24T06:40:24;99908.28;;;1.95;100.00
4398;BME280;2213;49.720;7.296;2023-01-24T06:42:54;99911.63;;;1.97;100.00
4398;BME280;2213;49.720;7.296;2023-01-24T06:45:26;99913.44;;;1.95;100.00
4398;BME280;2213;49.720;7.296;2023-01-24T06:47:57;99906.66;;;1.94;100.00
4398;BME280;2213;49.720;7.296;2023-01-24T06:50:30;99910.03;;;1.94;100.00
4398;BME280;2213;49.720;7.296;2023-01-24T06:53:00;99904.78;;;1.96;100.00
4398;BME280;2213;49.720;7.296;2023-01-24T06:55:31;99914.94;;;1.99;100.00
4398;BME280;2213;49.720;7.296;2023-01-24T06:58:03;99909.78;;;1.99;100.00
4398;BME280;2213;49.720;7.296;2023-01-24T07:00:32;99912.19;;;2.02;100.00
4398;BME280;2213;49.720;7.296;2023-01-24T07:03:06;99899.28;;;2.02;100.00
4398;BME280;2213;49.720;7.296;2023-01-24T07:05:37;99906.13;;;2.03;100.00
4398;BME280;2213;49.720;7.296;2023-01-24T07:08:07;99907.78;;;2.04;100.00
4398;BME280;2213;49.720;7.296;2023-01-24T07:10:35;99921.59;;;2.03;100.00
4398;BME280;2213;49.720;7.296;2023-01-24T07:13:06;99924.09;;;2.05;100.00
4398;BME280;2213;49.720;7.296;2023-01-24T07:15:37;99927.75;;;2.00;100.00
4398;BME280;2213;49.720;7.296;2023-01-24T07:18:10;99920.75;;;2.02;100.00
4398;BME280;2213;49.720;7.296;2023-01-24T07:20:42;99928.41;;;2.04;100.00
4398;BME280;2213;49.720;7.296;2023-01-24T07:23:21;99921.66;;;2.01;100.00
4398;BME280;2213;49.720;7.296;2023-01-24T07:25:51;99930.34;;;2.00;100.00
4398;BME280;2213;49.720;7.296;2023-01-24T07:28:23;99939.81;;;2.00;100.00
4398;BME280;2213;49.720;7.296;2023-01-24T07:30:54;99938.09;;;2.00;100.00
4398;BME280;2213;49.720;7.296;2023-01-24T07:33:25;99942.41;;;2.00;100.00
4398;BME280;2213;49.720;7.296;2023-01-24T07:35:56;99946.66;;;2.01;100.00
4398;BME280;2213;49.720;7.296;2023-01-24T07:38:26;99950.81;;;2.03;100.00
4398;BME280;2213;49.720;7.296;2023-01-24T07:40:55;99957.53;;;2.06;100.00
4398;BME280;2213;49.720;7.296;2023-01-24T07:43:26;99960.03;;;2.08;100.00
4398;BME280;2213;49.720;7.296;2023-01-24T07:45:56;99964.34;;;2.07;100.00
4398;BME280;2213;49.720;7.296;2023-01-24T07:48:26;99966.09;;;2.07;100.00
4398;BME280;2213;49.720;7.296;2023-01-24T07:50:59;99966.03;;;2.08;100.00
4398;BME280;2213;49.720;7.296;2023-01-24T07:53:30;99962.50;;;2.09;100.00
4398;BME280;2213;49.720;7.296;2023-01-24T07:56:00;99965.38;;;2.05;100.00
4398;BME280;2213;49.720;7.296;2023-01-24T07:58:30;99971.19;;;2.08;100.00
4398;BME280;2213;49.720;7.296;2023-01-24T08:01:01;99966.94;;;2.07;100.00
4398;BME280;2213;49.720;7.296;2023-01-24T08:03:32;99976.34;;;2.08;100.00
4398;BME280;2213;49.720;7.296;2023-01-24T08:06:04;99971.19;;;2.08;100.00
4398;BME280;2213;49.720;7.296;2023-01-24T08:08:34;99982.25;;;2.10;100.00
4398;BME280;2213;49.720;7.296;2023-01-24T08:11:04;99982.59;;;2.04;100.00
4398;BME280;2213;49.720;7.296;2023-01-24T08:13:34;99986.56;;;2.10;100.00
4398;BME280;2213;49.720;7.296;2023-01-24T08:16:05;99981.34;;;2.11;100.00
4398;BME280;2213;49.720;7.296;2023-01-24T08:18:37;99983.91;;;2.11;100.00
4398;BME280;2213;49.720;7.296;2023-01-24T08:21:08;99979.66;;;2.10;100.00
4398;BME280;2213;49.720;7.296;2023-01-24T08:23:41;99992.38;;;2.13;100.00
4398;BME280;2213;49.720;7.296;2023-01-24T08:26:12;99984.66;;;2.13;100.00
4398;BME280;2213;49.720;7.296;2023-01-24T08:28:42;99988.06;;;2.14;100.00
4398;BME280;2213;49.720;7.296;2023-01-24T08:31:12;99984.66;;;2.13;100.00
4398;BME280;2213;49.720;7.296;2023-01-24T08:33:43;99988.06;;;2.14;100.00
4398;BME280;2213;49.720;7.296;2023-01-24T08:36:14;99987.16;;;2.15;100.00
4398;BME280;2213;49.720;7.296;2023-01-24T08:38:45;99986.22;;;2.16;100.00
4398;BME280;2213;49.720;7.296;2023-01-24T08:41:14;99995.63;;;2.17;100.00
4398;BME280;2213;49.720;7.296;2023-01-24T08:43:44;99986.88;;;2.19;100.00
4398;BME280;2213;49.720;7.296;2023-01-24T08:46:15;99988.63;;;2.19;100.00
4398;BME280;2213;49.720;7.296;2023-01-24T08:48:45;99996.47;;;2.17;100.00
4398;BME280;2213;49.720;7.296;2023-01-24T08:51:16;99989.75;;;2.15;100.00
4398;BME280;2213;49.720;7.296;2023-01-24T08:53:45;99996.47;;;2.17;100.00
4398;BME280;2213;49.720;7.296;2023-01-24T08:56:14;99991.31;;;2.17;100.00
4398;BME280;2213;49.720;7.296;2023-01-24T08:58:44;99994.63;;;2.19;100.00
4398;BME280;2213;49.720;7.296;2023-01-24T09:01:13;99999.59;;;2.22;100.00
4398;BME280;2213;49.720;7.296;2023-01-24T09:03:44;99994.28;;;2.25;100.00
4398;BME280;2213;49.720;7.296;2023-01-24T09:06:14;99996.13;;;2.23;100.00
4398;BME280;2213;49.720;7.296;2023-01-24T09:08:44;100002.94;;;2.24;100.00
4398;BME280;2213;49.720;7.296;2023-01-24T09:11:14;99995.94;;;2.26;100.00
4398;BME280;2213;49.720;7.296;2023-01-24T09:13:45;99997.59;;;2.27;100.00
4398;BME280;2213;49.720;7.296;2023-01-24T09:16:13;99996.88;;;2.25;100.00
4398;BME280;2213;49.720;7.296;2023-01-24T09:18:45;99999.34;;;2.27;100.00
4398;BME280;2213;49.720;7.296;2023-01-24T09:21:15;99994.84;;;2.30;100.00
4398;BME280;2213;49.720;7.296;2023-01-24T09:23:45;99995.69;;;2.31;100.00
4398;BME280;2213;49.720;7.296;2023-01-24T09:26:15;99991.59;;;2.27;100.00
4398;BME280;2213;49.720;7.296;2023-01-24T09:28:46;100000.19;;;2.27;100.00
4398;BME280;2213;49.720;7.296;2023-01-24T09:31:17;99999.28;;;2.28;100.00
4398;BME280;2213;49.720;7.296;2023-01-24T09:33:48;100001.75;;;2.30;100.00
4398;BME280;2213;49.720;7.296;2023-01-24T09:36:27;100005.94;;;2.32;100.00
4398;BME280;2213;49.720;7.296;2023-01-24T09:38:57;100004.25;;;2.31;100.00
4398;BME280;2213;49.720;7.296;2023-01-24T09:41:48;100015.31;;;2.33;100.00
4398;BME280;2213;49.720;7.296;2023-01-24T09:44:43;100013.75;;;2.31;100.00
4398;BME280;2213;49.720;7.296;2023-01-24T09:47:20;100021.41;;;2.32;100.00
4398;BME280;2213;49.720;7.296;2023-01-24T09:49:58;100021.25;;;2.35;100.00
4398;BME280;2213;49.720;7.296;2023-01-24T09:52:35;100017.72;;;2.36;100.00
4398;BME280;2213;49.720;7.296;2023-01-24T09:55:12;100017.00;;;2.34;100.00
4398;BME280;2213;49.720;7.296;2023-01-24T09:57:50;100016.25;;;2.32;100.00
4398;BME280;2213;49.720;7.296;2023-01-24T10:00:26;100025.66;;;2.33;100.00
4398;BME280;2213;49.720;7.296;2023-01-24T10:03:00;100016.25;;;2.32;100.00
4398;BME280;2213;49.720;7.296;2023-01-24T10:05:38;100014.41;;;2.34;100.00
4398;BME280;2213;49.720;7.296;2023-01-24T10:08:19;100014.22;;;2.37;100.00
4398;BME280;2213;49.720;7.296;2023-01-24T10:11:02;100013.31;;;2.38;100.00
4398;BME280;2213;49.720;7.296;2023-01-24T10:14:26;100020.16;;;2.39;100.00
4398;BME280;2213;49.720;7.296;2023-01-24T10:17:59;100020.06;;;2.41;100.00
4398;BME280;2213;49.720;7.296;2023-01-24T10:21:00;100013.88;;;2.43;100.00
4398;BME280;2213;49.720;7.296;2023-01-24T10:23:37;100019.97;;;2.42;100.00
4398;BME280;2213;49.720;7.296;2023-01-24T10:26:19;100021.63;;;2.43;100.00
4398;BME280;2213;49.720;7.296;2023-01-24T10:28:51;100017.22;;;2.45;100.00
4398;BME280;2213;49.720;7.296;2023-01-24T10:31:26;100008.53;;;2.46;100.00
4398;BME280;2213;49.720;7.296;2023-01-24T10:34:09;100014.53;;;2.47;100.00
4398;BME280;2213;49.720;7.296;2023-01-24T10:36:46;100017.88;;;2.49;100.00
4398;BME280;2213;49.720;7.296;2023-01-24T10:39:17;100013.38;;;2.52;100.00
4398;BME280;2213;49.720;7.296;2023-01-24T10:41:46;100015.97;;;2.52;100.00
4398;BME280;2213;49.720;7.296;2023-01-24T10:44:23;100020.19;;;2.53;100.00
4398;BME280;2213;49.720;7.296;2023-01-24T10:47:38;100013.38;;;2.52;100.00
4398;BME280;2213;49.720;7.296;2023-01-24T10:50:35;100017.69;;;2.52;100.00
4398;BME280;2213;49.720;7.296;2023-01-24T10:53:22;100018.53;;;2.52;100.00
4398;BME280;2213;49.720;7.296;2023-01-24T10:56:00;100020.03;;;2.57;100.00
4398;BME280;2213;49.720;7.296;2023-01-24T10:58:35;100021.00;;;2.54;100.00
4398;BME280;2213;49.720;7.296;2023-01-24T11:01:14;100017.53;;;2.55;100.00
4398;BME280;2213;49.720;7.296;2023-01-24T11:03:49;100014.03;;;2.56;100.00
4398;BME280;2213;49.720;7.296;2023-01-24T11:06:31;100013.19;;;2.56;100.00
4398;BME280;2213;49.720;7.296;2023-01-24T11:09:11;100007.13;;;2.57;100.00
4398;BME280;2213;49.720;7.296;2023-01-24T11:11:45;100012.94;;;2.60;100.00
4398;BME280;2213;49.720;7.296;2023-01-24T11:14:20;100007.00;;;2.58;100.00
4398;BME280;2213;49.720;7.296;2023-01-24T11:16:54;100002.50;;;2.62;100.00
4398;BME280;2213;49.720;7.296;2023-01-24T11:19:29;100003.34;;;2.62;100.00
4398;BME280;2213;49.720;7.296;2023-01-24T11:22:18;99999.84;;;2.63;100.00
4398;BME280;2213;49.720;7.296;2023-01-24T11:24:50;99998.09;;;2.64;100.00
4398;BME280;2213;49.720;7.296;2023-01-24T11:27:23;100001.50;;;2.64;100.00
4398;BME280;2213;49.720;7.296;2023-01-24T11:30:10;100000.69;;;2.64;100.00
4398;BME280;2213;49.720;7.296;2023-01-24T11:33:00;99993.84;;;2.63;100.00
4398;BME280;2213;49.720;7.296;2023-01-24T11:35:37;99993.84;;;2.63;100.00
4398;BME280;2213;49.720;7.296;2023-01-24T11:38:25;99987.84;;;2.62;100.00
4398;BME280;2213;49.720;7.296;2023-01-24T11:41:12;99980.75;;;2.66;100.00
4398;BME280;2213;49.720;7.296;2023-01-24T11:44:33;99979.09;;;2.65;100.00
4398;BME280;2213;49.720;7.296;2023-01-24T11:47:12;99985.91;;;2.66;100.00
4398;BME280;2213;49.720;7.296;2023-01-24T11:50:14;99981.66;;;2.65;100.00
4398;BME280;2213;49.720;7.296;2023-01-24T11:53:06;99986.00;;;2.64;100.00
4398;BME280;2213;49.720;7.296;2023-01-24T11:56:08;99973.00;;;2.66;100.00
4398;BME280;2213;49.720;7.296;2023-01-24T11:58:54;99976.50;;;2.65;100.00
4398;BME280;2213;49.720;7.296;2023-01-24T12:01:42;99968.56;;;2.68;100.00
4398;BME280;2213;49.720;7.296;2023-01-24T12:04:40;99960.81;;;2.68;100.00
4398;BME280;2213;49.720;7.296;2023-01-24T12:07:24;99959.00;;;2.70;100.00
4398;BME280;2213;49.720;7.296;2023-01-24T12:10:14;99964.91;;;2.72;100.00
4398;BME280;2213;49.720;7.296;2023-01-24T12:13:05;99953.66;;;2.73;100.00
4398;BME280;2213;49.720;7.296;2023-01-24T12:15:56;99949.31;;;2.73;100.00
4398;BME280;2213;49.720;7.296;2023-01-24T12:18:42;99950.97;;;2.74;100.00
4398;BME280;2213;49.720;7.296;2023-01-24T12:21:16;99947.56;;;2.74;100.00
4398;BME280;2213;49.720;7.296;2023-01-24T12:23:52;99946.81;;;2.72;100.00
4398;BME280;2213;49.720;7.296;2023-01-24T12:26:27;99944.22;;;2.72;100.00
4398;BME280;2213;49.720;7.296;2023-01-24T12:29:06;99946.81;;;2.72;100.00
4398;BME280;2213;49.720;7.296;2023-01-24T12:31:46;99949.50;;;2.70;100.00
4398;BME280;2213;49.720;7.296;2023-01-24T12:34:37;99938.22;;;2.71;100.00
4398;BME280;2213;49.720;7.296;2023-01-24T12:37:22;99939.06;;;2.72;100.00
4398;BME280;2213;49.720;7.296;2023-01-24T12:40:00;99945.19;;;2.71;100.00
4398;BME280;2213;49.720;7.296;2023-01-24T12:42:47;99945.97;;;2.71;100.00
4398;BME280;2213;49.720;7.296;2023-01-24T12:45:31;99945.78;;;2.74;100.00
4398;BME280;2213;49.720;7.296;2023-01-24T12:48:16;99946.75;;;2.73;100.00
4398;BME280;2213;49.720;7.296;2023-01-24T12:50:55;99950.97;;;2.74;100.00
4398;BME280;2213;49.720;7.296;2023-01-24T12:53:33;99945.91;;;2.73;100.00
4398;BME280;2213;49.720;7.296;2023-01-24T12:56:09;99945.91;;;2.73;100.00
4398;BME280;2213;49.720;7.296;2023-01-24T12:58:44;99939.19;;;2.70;100.00
4398;BME280;2213;49.720;7.296;2023-01-24T13:01:50;99951.97;;;2.72;100.00
4398;BME280;2213;49.720;7.296;2023-01-24T13:04:35;99950.88;;;2.76;100.00
4398;BME280;2213;49.720;7.296;2023-01-24T13:07:24;99940.28;;;2.80;100.00
4398;BME280;2213;49.720;7.296;2023-01-24T13:10:15;99947.09;;;2.81;100.00
4398;BME280;2213;49.720;7.296;2023-01-24T13:12:47;99936.75;;;2.81;100.00
4398;BME280;2213;49.720;7.296;2023-01-24T13:15:21;99947.94;;;2.82;100.00
4398;BME280;2213;49.720;7.296;2023-01-24T13:18:18;99953.84;;;2.84;100.00
4398;BME280;2213;49.720;7.296;2023-01-24T13:21:05;99946.44;;;2.78;100.00
4398;BME280;2213;49.720;7.296;2023-01-24T13:24:04;99946.63;;;2.75;100.00
4398;BME280;2213;49.720;7.296;2023-01-24T13:27:14;99948.13;;;2.79;100.00
4398;BME280;2213;49.720;7.296;2023-01-24T13:30:02;99942.13;;;2.78;100.00
4398;BME280;2213;49.720;7.296;2023-01-24T13:32:35;99942.03;;;2.80;100.00
4398;BME280;2213;49.720;7.296;2023-01-24T13:35:18;99950.50;;;2.82;100.00
4398;BME280;2213;49.720;7.296;2023-01-24T13:37:54;99938.16;;;2.87;100.00
4398;BME280;2213;49.720;7.296;2023-01-24T13:40:28;99947.59;;;2.88;100.00
4398;BME280;2213;49.720;7.296;2023-01-24T13:43:54;99929.59;;;2.86;100.00
4398;BME280;2213;49.720;7.296;2023-01-24T13:45:55;99924.59;;;2.83;100.00
4398;BME280;2213;49.720;7.296;2023-01-24T13:48:53;99931.44;;;2.84;100.00
4398;BME280;2213;49.720;7.296;2023-01-24T13:51:46;99931.31;;;2.86;100.00
4398;BME280;2213;49.720;7.296;2023-01-24T13:54:36;99926.91;;;2.88;100.00
4398;BME280;2213;49.720;7.296;2023-01-24T13:57:24;99927.72;;;2.88;100.00
4398;BME280;2213;49.720;7.296;2023-01-24T14:00:17;99931.06;;;2.90;100.00
4398;BME280;2213;49.720;7.296;2023-01-24T14:03:15;99934.47;;;2.91;100.00
4398;BME280;2213;49.720;7.296;2023-01-24T14:05:51;99922.41;;;2.91;100.00
4398;BME280;2213;49.720;7.296;2023-01-24T14:08:43;99926.53;;;2.94;100.00